sensor_id;sensor_type;location;lat;lon;timestamp;temperature;humidity
6724;DHT22;3399;52.530;13.304;2023-05-16T00:00:23;14.30;99.90
6724;DHT22;3399;52.530;13.304;2023-05-16T00:02:52;14.30;99.90
6724;DHT22;3399;52.530;13.304;2023-05-16T00:05:18;14.30;99.90
6724;DHT22;3399;52.530;13.304;2023-05-16T00:07:45;14.30;99.90
6724;DHT22;3399;52.530;13.304;2023-05-16T00:10:11;14.30;99.90
6724;DHT22;3399;52.530;13.304;2023-05-16T00:12:37;14.30;99.90
6724;DHT22;3399;52.530;13.304;2023-05-16T00:15:06;14.30;99.90
6724;DHT22;3399;52.530;13.304;2023-05-16T00:17:33;14.30;99.90
6724;DHT22;3399;52.530;13.304;2023-05-16T00:19:59;14.20;99.90
6724;DHT22;3399;52.530;13.304;2023-05-16T00:22:26;14.20;99.90
6724;DHT22;3399;52.530;13.304;2023-05-16T00:24:55;14.20;99.90
6724;DHT22;3399;52.530;13.304;2023-05-16T00:27:20;14.30;99.90
6724;DHT22;3399;52.530;13.304;2023-05-16T00:29:46;14.20;99.90
6724;DHT22;3399;52.530;13.304;2023-05-16T00:32:12;14.20;99.90
6724;DHT22;3399;52.530;13.304;2023-05-16T00:34:37;14.20;99.90
6724;DHT22;3399;52.530;13.304;2023-05-16T00:37:03;14.20;99.90
6724;DHT22;3399;52.530;13.304;2023-05-16T00:39:29;14.20;99.90
6724;DHT22;3399;52.530;13.304;2023-05-16T00:41:55;14.10;99.90
6724;DHT22;3399;52.530;13.304;2023-05-16T00:44:22;14.00;99.90
6724;DHT22;3399;52.530;13.304;2023-05-16T00:46:47;14.00;99.90
6724;DHT22;3399;52.530;13.304;2023-05-16T00:49:13;14.00;99.90
6724;DHT22;3399;52.530;13.304;2023-05-16T00:51:38;14.00;99.90
6724;DHT22;3399;52.530;13.304;2023-05-16T00:54:05;13.90;99.90
6724;DHT22;3399;52.530;13.304;2023-05-16T00:56:31;13.90;99.90
6724;DHT22;3399;52.530;13.304;2023-05-16T00:58:57;13.80;99.90
6724;DHT22;3399;52.530;13.304;2023-05-16T01:01:24;13.80;99.90
6724;DHT22;3399;52.530;13.304;2023-05-16T01:03:50;13.70;99.90
6724;DHT22;3399;52.530;13.304;2023-05-16T01:06:16;13.60;99.90
6724;DHT22;3399;52.530;13.304;2023-05-16T01:08:42;13.50;99.90
6724;DHT22;3399;52.530;13.304;2023-05-16T01:11:27;13.50;99.90
6724;DHT22;3399;52.530;13.304;2023-05-16T01:14:13;13.50;99.90
6724;DHT22;3399;52.530;13.304;2023-05-16T01:17:08;13.40;99.90
6724;DHT22;3399;52.530;13.304;2023-05-16T01:19:57;13.40;99.90
6724;DHT22;3399;52.530;13.304;2023-05-16T01:22:40;13.30;99.90
6724;DHT22;3399;52.530;13.304;2023-05-16T01:27:58;13.10;99.90
6724;DHT22;3399;52.530;13.304;2023-05-16T01:30:23;13.10;99.90
6724;DHT22;3399;52.530;13.304;2023-05-16T01:32:49;13.00;99.90
6724;DHT22;3399;52.530;13.304;2023-05-16T01:35:16;13.00;99.90
6724;DHT22;3399;52.530;13.304;2023-05-16T01:40:35;12.90;99.90
6724;DHT22;3399;52.530;13.304;2023-05-16T01:43:07;12.80;99.90
6724;DHT22;3399;52.530;13.304;2023-05-16T01:45:36;12.70;99.90
6724;DHT22;3399;52.530;13.304;2023-05-16T01:48:07;12.70;99.90
6724;DHT22;3399;52.530;13.304;2023-05-16T01:50:37;12.70;99.90
6724;DHT22;3399;52.530;13.304;2023-05-16T01:53:31;12.70;99.90
6724;DHT22;3399;52.530;13.304;2023-05-16T01:55:56;12.70;99.90
6724;DHT22;3399;52.530;13.304;2023-05-16T01:58:25;12.50;99.90
6724;DHT22;3399;52.530;13.304;2023-05-16T02:01:00;12.50;99.90
6724;DHT22;3399;52.530;13.304;2023-05-16T02:03:26;12.50;99.90
6724;DHT22;3399;52.530;13.304;2023-05-16T02:05:52;12.40;99.90
6724;DHT22;3399;52.530;13.304;2023-05-16T02:08:17;12.40;99.90
6724;DHT22;3399;52.530;13.304;2023-05-16T02:10:43;12.40;99.90
6724;DHT22;3399;52.530;13.304;2023-05-16T02:13:08;12.40;99.90
6724;DHT22;3399;52.530;13.304;2023-05-16T02:15:35;12.30;99.90
6724;DHT22;3399;52.530;13.304;2023-05-16T02:18:00;12.30;99.90
6724;DHT22;3399;52.530;13.304;2023-05-16T02:20:25;12.10;99.90
6724;DHT22;3399;52.530;13.304;2023-05-16T02:22:51;12.10;99.90
6724;DHT22;3399;52.530;13.304;2023-05-16T02:25:17;12.00;99.90
6724;DHT22;3399;52.530;13.304;2023-05-16T02:27:42;11.90;99.90
6724;DHT22;3399;52.530;13.304;2023-05-16T02:30:09;11.80;99.90
6724;DHT22;3399;52.530;13.304;2023-05-16T02:32:37;11.80;99.90
6724;DHT22;3399;52.530;13.304;2023-05-16T02:35:03;11.80;99.90
6724;DHT22;3399;52.530;13.304;2023-05-16T02:37:29;11.90;99.90
6724;DHT22;3399;52.530;13.304;2023-05-16T02:39:54;12.00;99.90
6724;DHT22;3399;52.530;13.304;2023-05-16T02:42:20;12.00;99.90
6724;DHT22;3399;52.530;13.304;2023-05-16T02:44:45;12.00;99.90
6724;DHT22;3399;52.530;13.304;2023-05-16T02:47:13;12.10;99.90
6724;DHT22;3399;52.530;13.304;2023-05-16T02:49:39;12.00;99.90
6724;DHT22;3399;52.530;13.304;2023-05-16T02:52:05;11.90;99.90
6724;DHT22;3399;52.530;13.304;2023-05-16T02:54:30;11.90;99.90
6724;DHT22;3399;52.530;13.304;2023-05-16T02:56:56;11.90;99.90
6724;DHT22;3399;52.530;13.304;2023-05-16T02:59:21;11.90;99.90
6724;DHT22;3399;52.530;13.304;2023-05-16T03:01:47;11.90;99.90
6724;DHT22;3399;52.530;13.304;2023-05-16T03:04:13;12.00;99.90
6724;DHT22;3399;52.530;13.304;2023-05-16T03:06:38;11.90;99.90
6724;DHT22;3399;52.530;13.304;2023-05-16T03:09:03;11.90;99.90
6724;DHT22;3399;52.530;13.304;2023-05-16T03:11:29;11.90;99.90
6724;DHT22;3399;52.530;13.304;2023-05-16T03:13:55;11.90;99.90
6724;DHT22;3399;52.530;13.304;2023-05-16T03:16:20;11.90;99.90
6724;DHT22;3399;52.530;13.304;2023-05-16T03:18:46;11.80;99.90
6724;DHT22;3399;52.530;13.304;2023-05-16T03:21:11;11.80;99.90
6724;DHT22;3399;52.530;13.304;2023-05-16T03:23:37;11.90;99.90
6724;DHT22;3399;52.530;13.304;2023-05-16T03:26:02;11.80;99.90
6724;DHT22;3399;52.530;13.304;2023-05-16T03:28:28;11.90;99.90
6724;DHT22;3399;52.530;13.304;2023-05-16T03:30:53;11.90;99.90
6724;DHT22;3399;52.530;13.304;2023-05-16T03:33:19;11.90;99.90
6724;DHT22;3399;52.530;13.304;2023-05-16T03:35:45;11.80;99.90
6724;DHT22;3399;52.530;13.304;2023-05-16T03:38:11;11.80;99.90
6724;DHT22;3399;52.530;13.304;2023-05-16T03:40:36;11.70;99.90
6724;DHT22;3399;52.530;13.304;2023-05-16T03:43:02;11.70;99.90
6724;DHT22;3399;52.530;13.304;2023-05-16T03:45:29;11.70;99.90
6724;DHT22;3399;52.530;13.304;2023-05-16T03:47:55;11.60;99.90
6724;DHT22;3399;52.530;13.304;2023-05-16T03:50:20;11.60;99.90
6724;DHT22;3399;52.530;13.304;2023-05-16T03:52:46;11.60;99.90
6724;DHT22;3399;52.530;13.304;2023-05-16T03:55:12;11.60;99.90
6724;DHT22;3399;52.530;13.304;2023-05-16T03:57:39;11.60;99.90
6724;DHT22;3399;52.530;13.304;2023-05-16T04:00:08;11.60;99.90
6724;DHT22;3399;52.530;13.304;2023-05-16T04:02:35;11.60;99.90
6724;DHT22;3399;52.530;13.304;2023-05-16T04:05:00;11.60;99.90
6724;DHT22;3399;52.530;13.304;2023-05-16T04:07:26;11.40;99.90
6724;DHT22;3399;52.530;13.304;2023-05-16T04:09:52;11.40;99.90
6724;DHT22;3399;52.530;13.304;2023-05-16T04:12:18;11.40;99.90
6724;DHT22;3399;52.530;13.304;2023-05-16T04:14:43;11.30;99.90
6724;DHT22;3399;52.530;13.304;2023-05-16T04:17:09;11.40;99.90
6724;DHT22;3399;52.530;13.304;2023-05-16T04:19:35;11.30;99.90
6724;DHT22;3399;52.530;13.304;2023-05-16T04:22:00;11.40;99.90
6724;DHT22;3399;52.530;13.304;2023-05-16T04:24:26;11.40;99.90
6724;DHT22;3399;52.530;13.304;2023-05-16T04:26:53;11.40;99.90
6724;DHT22;3399;52.530;13.304;2023-05-16T04:29:19;11.40;99.90
6724;DHT22;3399;52.530;13.304;2023-05-16T04:31:45;11.30;99.90
6724;DHT22;3399;52.530;13.304;2023-05-16T04:34:11;11.30;99.90
6724;DHT22;3399;52.530;13.304;2023-05-16T04:36:37;11.30;99.90
6724;DHT22;3399;52.530;13.304;2023-05-16T04:39:03;11.40;99.90
6724;DHT22;3399;52.530;13.304;2023-05-16T04:41:28;11.40;99.90
6724;DHT22;3399;52.530;13.304;2023-05-16T04:43:54;11.40;99.90
6724;DHT22;3399;52.530;13.304;2023-05-16T04:46:19;11.30;99.90
6724;DHT22;3399;52.530;13.304;2023-05-16T04:48:45;11.20;99.90
6724;DHT22;3399;52.530;13.304;2023-05-16T04:51:10;11.20;99.90
6724;DHT22;3399;52.530;13.304;2023-05-16T04:53:36;11.20;99.90
6724;DHT22;3399;52.530;13.304;2023-05-16T04:56:01;11.20;99.90
6724;DHT22;3399;52.530;13.304;2023-05-16T04:58:27;11.10;99.90
6724;DHT22;3399;52.530;13.304;2023-05-16T05:00:53;11.10;99.90
6724;DHT22;3399;52.530;13.304;2023-05-16T05:03:20;11.00;99.90
6724;DHT22;3399;52.530;13.304;2023-05-16T05:05:45;11.00;99.90
6724;DHT22;3399;52.530;13.304;2023-05-16T05:08:12;11.00;99.90
6724;DHT22;3399;52.530;13.304;2023-05-16T05:10:37;11.00;99.90
6724;DHT22;3399;52.530;13.304;2023-05-16T05:13:03;11.00;99.90
6724;DHT22;3399;52.530;13.304;2023-05-16T05:15:29;11.10;99.90
6724;DHT22;3399;52.530;13.304;2023-05-16T05:17:54;11.20;99.90
6724;DHT22;3399;52.530;13.304;2023-05-16T05:20:20;11.30;99.90
6724;DHT22;3399;52.530;13.304;2023-05-16T05:22:45;11.30;99.90
6724;DHT22;3399;52.530;13.304;2023-05-16T05:25:11;11.40;99.90
6724;DHT22;3399;52.530;13.304;2023-05-16T05:27:37;11.40;99.90
6724;DHT22;3399;52.530;13.304;2023-05-16T05:30:03;11.40;99.90
6724;DHT22;3399;52.530;13.304;2023-05-16T05:32:29;11.50;99.90
6724;DHT22;3399;52.530;13.304;2023-05-16T05:34:55;11.50;99.90
6724;DHT22;3399;52.530;13.304;2023-05-16T05:37:20;11.50;99.90
6724;DHT22;3399;52.530;13.304;2023-05-16T05:39:46;11.50;99.90
6724;DHT22;3399;52.530;13.304;2023-05-16T05:42:11;11.50;99.90
6724;DHT22;3399;52.530;13.304;2023-05-16T05:44:37;11.50;99.90
6724;DHT22;3399;52.530;13.304;2023-05-16T05:47:06;11.50;99.90
6724;DHT22;3399;52.530;13.304;2023-05-16T05:49:32;11.50;99.90
6724;DHT22;3399;52.530;13.304;2023-05-16T05:51:58;11.50;99.90
6724;DHT22;3399;52.530;13.304;2023-05-16T05:54:24;11.40;99.90
6724;DHT22;3399;52.530;13.304;2023-05-16T05:56:50;11.50;99.90
6724;DHT22;3399;52.530;13.304;2023-05-16T05:59:15;11.50;99.90
6724;DHT22;3399;52.530;13.304;2023-05-16T06:01:41;11.60;99.90
6724;DHT22;3399;52.530;13.304;2023-05-16T06:04:09;11.60;99.90
6724;DHT22;3399;52.530;13.304;2023-05-16T06:06:34;11.60;99.90
6724;DHT22;3399;52.530;13.304;2023-05-16T06:09:00;11.70;99.90
6724;DHT22;3399;52.530;13.304;2023-05-16T06:11:25;11.60;99.90
6724;DHT22;3399;52.530;13.304;2023-05-16T06:13:51;11.60;99.90
6724;DHT22;3399;52.530;13.304;2023-05-16T06:16:17;11.70;99.90
6724;DHT22;3399;52.530;13.304;2023-05-16T06:18:43;11.60;99.90
6724;DHT22;3399;52.530;13.304;2023-05-16T06:21:08;11.60;99.90
6724;DHT22;3399;52.530;13.304;2023-05-16T06:23:34;11.60;99.90
6724;DHT22;3399;52.530;13.304;2023-05-16T06:26:03;11.60;99.90
6724;DHT22;3399;52.530;13.304;2023-05-16T06:28:29;11.70;99.90
6724;DHT22;3399;52.530;13.304;2023-05-16T06:30:54;11.70;99.90
6724;DHT22;3399;52.530;13.304;2023-05-16T06:33:20;11.60;99.90
6724;DHT22;3399;52.530;13.304;2023-05-16T06:35:46;11.60;99.90
6724;DHT22;3399;52.530;13.304;2023-05-16T06:38:13;11.60;99.90
6724;DHT22;3399;52.530;13.304;2023-05-16T06:40:39;11.70;99.90
6724;DHT22;3399;52.530;13.304;2023-05-16T06:43:04;11.70;99.90
6724;DHT22;3399;52.530;13.304;2023-05-16T06:45:30;11.70;99.90
6724;DHT22;3399;52.530;13.304;2023-05-16T06:47:55;11.70;99.90
6724;DHT22;3399;52.530;13.304;2023-05-16T06:50:21;11.80;99.90
6724;DHT22;3399;52.530;13.304;2023-05-16T06:52:47;11.80;99.90
6724;DHT22;3399;52.530;13.304;2023-05-16T06:55:12;11.80;99.90
6724;DHT22;3399;52.530;13.304;2023-05-16T06:57:38;11.80;99.90
6724;DHT22;3399;52.530;13.304;2023-05-16T07:00:04;11.80;99.90
6724;DHT22;3399;52.530;13.304;2023-05-16T07:02:30;11.80;99.90
6724;DHT22;3399;52.530;13.304;2023-05-16T07:04:58;11.80;99.90
6724;DHT22;3399;52.530;13.304;2023-05-16T07:07:24;11.80;99.90
6724;DHT22;3399;52.530;13.304;2023-05-16T07:09:50;11.90;99.90
6724;DHT22;3399;52.530;13.304;2023-05-16T07:12:15;11.90;99.90
6724;DHT22;3399;52.530;13.304;2023-05-16T07:14:41;11.90;99.90
6724;DHT22;3399;52.530;13.304;2023-05-16T07:17:08;12.00;99.90
6724;DHT22;3399;52.530;13.304;2023-05-16T07:19:33;12.00;99.90
6724;DHT22;3399;52.530;13.304;2023-05-16T07:22:01;12.00;99.90
6724;DHT22;3399;52.530;13.304;2023-05-16T07:24:27;12.00;99.90
6724;DHT22;3399;52.530;13.304;2023-05-16T07:26:52;12.10;99.90
6724;DHT22;3399;52.530;13.304;2023-05-16T07:29:18;12.10;99.90
6724;DHT22;3399;52.530;13.304;2023-05-16T07:31:43;12.20;99.90
6724;DHT22;3399;52.530;13.304;2023-05-16T07:34:09;12.20;99.90
6724;DHT22;3399;52.530;13.304;2023-05-16T07:36:35;12.20;99.90
6724;DHT22;3399;52.530;13.304;2023-05-16T07:39:01;12.30;99.90
6724;DHT22;3399;52.530;13.304;2023-05-16T07:41:27;12.40;99.90
6724;DHT22;3399;52.530;13.304;2023-05-16T07:43:53;12.30;99.90
6724;DHT22;3399;52.530;13.304;2023-05-16T07:46:19;12.30;99.90
6724;DHT22;3399;52.530;13.304;2023-05-16T07:48:44;12.20;99.90
6724;DHT22;3399;52.530;13.304;2023-05-16T07:51:10;12.30;99.90
6724;DHT22;3399;52.530;13.304;2023-05-16T07:53:35;12.30;99.90
6724;DHT22;3399;52.530;13.304;2023-05-16T07:56:01;12.30;99.90
6724;DHT22;3399;52.530;13.304;2023-05-16T07:58:26;12.30;99.90
6724;DHT22;3399;52.530;13.304;2023-05-16T08:00:52;12.30;99.90
6724;DHT22;3399;52.530;13.304;2023-05-16T08:03:17;12.30;99.90
6724;DHT22;3399;52.530;13.304;2023-05-16T08:05:43;12.30;99.90
6724;DHT22;3399;52.530;13.304;2023-05-16T08:08:09;12.30;99.90
6724;DHT22;3399;52.530;13.304;2023-05-16T08:10:34;12.50;99.90
6724;DHT22;3399;52.530;13.304;2023-05-16T08:13:00;12.60;99.90
6724;DHT22;3399;52.530;13.304;2023-05-16T08:15:26;12.70;99.90
6724;DHT22;3399;52.530;13.304;2023-05-16T08:17:56;12.50;99.90
6724;DHT22;3399;52.530;13.304;2023-05-16T08:20:23;12.40;99.90
6724;DHT22;3399;52.530;13.304;2023-05-16T08:22:49;12.40;99.90
6724;DHT22;3399;52.530;13.304;2023-05-16T08:25:15;12.40;99.90
6724;DHT22;3399;52.530;13.304;2023-05-16T08:28:00;12.40;99.90
6724;DHT22;3399;52.530;13.304;2023-05-16T08:30:27;12.30;99.90
6724;DHT22;3399;52.530;13.304;2023-05-16T08:32:52;12.30;99.90
6724;DHT22;3399;52.530;13.304;2023-05-16T08:35:18;12.30;99.90
6724;DHT22;3399;52.530;13.304;2023-05-16T08:37:46;12.30;99.90
6724;DHT22;3399;52.530;13.304;2023-05-16T08:40:12;12.30;99.90
6724;DHT22;3399;52.530;13.304;2023-05-16T08:42:39;12.30;99.90
6724;DHT22;3399;52.530;13.304;2023-05-16T08:45:08;12.30;99.90
6724;DHT22;3399;52.530;13.304;2023-05-16T08:47:35;12.30;99.90
6724;DHT22;3399;52.530;13.304;2023-05-16T08:50:02;12.30;99.90
6724;DHT22;3399;52.530;13.304;2023-05-16T08:52:30;12.40;99.90
6724;DHT22;3399;52.530;13.304;2023-05-16T08:55:01;12.40;99.90
6724;DHT22;3399;52.530;13.304;2023-05-16T08:57:30;12.50;99.90
6724;DHT22;3399;52.530;13.304;2023-05-16T08:59:56;12.60;99.90
6724;DHT22;3399;52.530;13.304;2023-05-16T09:02:22;12.80;99.90
6724;DHT22;3399;52.530;13.304;2023-05-16T09:04:48;12.90;99.90
6724;DHT22;3399;52.530;13.304;2023-05-16T09:07:14;12.90;99.90
6724;DHT22;3399;52.530;13.304;2023-05-16T09:09:41;13.00;99.90
6724;DHT22;3399;52.530;13.304;2023-05-16T09:12:06;13.10;99.90
6724;DHT22;3399;52.530;13.304;2023-05-16T09:14:32;13.10;99.90
6724;DHT22;3399;52.530;13.304;2023-05-16T09:17:05;13.10;99.90
6724;DHT22;3399;52.530;13.304;2023-05-16T09:19:43;13.10;99.90
6724;DHT22;3399;52.530;13.304;2023-05-16T09:22:13;13.10;99.90
6724;DHT22;3399;52.530;13.304;2023-05-16T09:24:42;13.10;99.90
6724;DHT22;3399;52.530;13.304;2023-05-16T09:27:12;13.10;99.90
6724;DHT22;3399;52.530;13.304;2023-05-16T09:29:43;13.10;99.90
6724;DHT22;3399;52.530;13.304;2023-05-16T09:32:11;13.00;99.90
6724;DHT22;3399;52.530;13.304;2023-05-16T09:34:38;13.10;99.90
6724;DHT22;3399;52.530;13.304;2023-05-16T09:37:04;13.10;99.90
6724;DHT22;3399;52.530;13.304;2023-05-16T09:39:30;13.10;99.90
6724;DHT22;3399;52.530;13.304;2023-05-16T09:41:57;13.10;99.90
6724;DHT22;3399;52.530;13.304;2023-05-16T09:44:23;13.00;99.90
6724;DHT22;3399;52.530;13.304;2023-05-16T09:46:49;12.90;99.90
6724;DHT22;3399;52.530;13.304;2023-05-16T09:49:17;12.90;99.90
6724;DHT22;3399;52.530;13.304;2023-05-16T09:51:42;12.90;99.90
6724;DHT22;3399;52.530;13.304;2023-05-16T09:54:08;12.90;99.90
6724;DHT22;3399;52.530;13.304;2023-05-16T09:56:47;12.90;99.90
6724;DHT22;3399;52.530;13.304;2023-05-16T09:59:13;12.90;99.90
6724;DHT22;3399;52.530;13.304;2023-05-16T10:01:39;12.90;99.90
6724;DHT22;3399;52.530;13.304;2023-05-16T10:04:05;12.90;99.90
6724;DHT22;3399;52.530;13.304;2023-05-16T10:06:31;12.80;99.90
6724;DHT22;3399;52.530;13.304;2023-05-16T10:08:57;12.80;99.90
6724;DHT22;3399;52.530;13.304;2023-05-16T10:11:24;12.80;99.90
6724;DHT22;3399;52.530;13.304;2023-05-16T10:13:50;12.80;99.90
6724;DHT22;3399;52.530;13.304;2023-05-16T10:16:17;12.60;99.90
6724;DHT22;3399;52.530;13.304;2023-05-16T10:18:45;12.50;99.90
6724;DHT22;3399;52.530;13.304;2023-05-16T10:21:15;12.50;99.90
6724;DHT22;3399;52.530;13.304;2023-05-16T10:23:43;12.60;99.90
6724;DHT22;3399;52.530;13.304;2023-05-16T10:26:11;12.80;99.90
6724;DHT22;3399;52.530;13.304;2023-05-16T10:28:39;13.00;99.90
6724;DHT22;3399;52.530;13.304;2023-05-16T10:31:07;13.00;99.90
6724;DHT22;3399;52.530;13.304;2023-05-16T10:33:32;13.20;99.90
6724;DHT22;3399;52.530;13.304;2023-05-16T10:36:00;13.00;99.90
6724;DHT22;3399;52.530;13.304;2023-05-16T10:38:27;13.00;99.90
6724;DHT22;3399;52.530;13.304;2023-05-16T10:40:53;12.90;99.90
6724;DHT22;3399;52.530;13.304;2023-05-16T10:43:24;12.90;99.90
6724;DHT22;3399;52.530;13.304;2023-05-16T10:45:57;12.90;99.90
6724;DHT22;3399;52.530;13.304;2023-05-16T10:48:34;12.80;99.90
6724;DHT22;3399;52.530;13.304;2023-05-16T10:51:02;12.60;99.90
6724;DHT22;3399;52.530;13.304;2023-05-16T10:53:31;12.60;99.90
6724;DHT22;3399;52.530;13.304;2023-05-16T11:01:22;12.90;99.90
6724;DHT22;3399;52.530;13.304;2023-05-16T11:06:24;13.30;99.90
6724;DHT22;3399;52.530;13.304;2023-05-16T11:14:07;13.30;99.90
6724;DHT22;3399;52.530;13.304;2023-05-16T11:16:34;13.40;99.90
6724;DHT22;3399;52.530;13.304;2023-05-16T11:19:04;13.40;99.90
6724;DHT22;3399;52.530;13.304;2023-05-16T11:22:08;13.50;99.90
6724;DHT22;3399;52.530;13.304;2023-05-16T11:24:35;13.50;99.90
6724;DHT22;3399;52.530;13.304;2023-05-16T11:27:02;13.40;99.90
6724;DHT22;3399;52.530;13.304;2023-05-16T11:29:34;13.30;99.90
6724;DHT22;3399;52.530;13.304;2023-05-16T11:32:03;13.40;99.90
6724;DHT22;3399;52.530;13.304;2023-05-16T11:34:31;13.40;99.90
6724;DHT22;3399;52.530;13.304;2023-05-16T11:36:59;13.40;99.90
6724;DHT22;3399;52.530;13.304;2023-05-16T11:39:26;13.70;99.90
6724;DHT22;3399;52.530;13.304;2023-05-16T11:41:52;14.20;99.90
6724;DHT22;3399;52.530;13.304;2023-05-16T11:44:18;14.60;99.90
6724;DHT22;3399;52.530;13.304;2023-05-16T11:46:44;15.30;99.90
6724;DHT22;3399;52.530;13.304;2023-05-16T11:49:11;15.20;99.90
6724;DHT22;3399;52.530;13.304;2023-05-16T11:51:42;14.90;99.90
6724;DHT22;3399;52.530;13.304;2023-05-16T11:54:11;14.80;99.90
6724;DHT22;3399;52.530;13.304;2023-05-16T11:56:38;14.60;99.90
6724;DHT22;3399;52.530;13.304;2023-05-16T11:59:04;14.40;99.90
6724;DHT22;3399;52.530;13.304;2023-05-16T12:01:34;14.30;99.90
6724;DHT22;3399;52.530;13.304;2023-05-16T12:04:01;14.10;99.90
6724;DHT22;3399;52.530;13.304;2023-05-16T12:06:31;14.10;99.90
6724;DHT22;3399;52.530;13.304;2023-05-16T12:08:57;14.10;99.90
6724;DHT22;3399;52.530;13.304;2023-05-16T12:11:23;14.30;99.90
6724;DHT22;3399;52.530;13.304;2023-05-16T12:13:49;14.30;99.90
6724;DHT22;3399;52.530;13.304;2023-05-16T12:16:15;14.40;99.90
6724;DHT22;3399;52.530;13.304;2023-05-16T12:18:40;14.30;99.90
6724;DHT22;3399;52.530;13.304;2023-05-16T12:21:06;14.50;99.90
6724;DHT22;3399;52.530;13.304;2023-05-16T12:23:32;14.70;99.90
6724;DHT22;3399;52.530;13.304;2023-05-16T12:25:58;15.00;99.90
6724;DHT22;3399;52.530;13.304;2023-05-16T12:28:31;15.10;99.90
6724;DHT22;3399;52.530;13.304;2023-05-16T12:30:58;15.10;99.40
6724;DHT22;3399;52.530;13.304;2023-05-16T12:33:24;15.10;99.70
6724;DHT22;3399;52.530;13.304;2023-05-16T12:35:49;15.10;98.70
6724;DHT22;3399;52.530;13.304;2023-05-16T12:38:18;15.30;99.70
6724;DHT22;3399;52.530;13.304;2023-05-16T12:40:45;16.00;97.80
6724;DHT22;3399;52.530;13.304;2023-05-16T12:43:14;16.70;95.90
6724;DHT22;3399;52.530;13.304;2023-05-16T12:45:40;16.60;97.60
6724;DHT22;3399;52.530;13.304;2023-05-16T12:48:12;16.50;95.30
6724;DHT22;3399;52.530;13.304;2023-05-16T12:50:39;16.60;95.10
6724;DHT22;3399;52.530;13.304;2023-05-16T12:53:10;16.50;94.70
6724;DHT22;3399;52.530;13.304;2023-05-16T12:55:39;16.00;95.90
6724;DHT22;3399;52.530;13.304;2023-05-16T12:58:05;15.80;96.70
6724;DHT22;3399;52.530;13.304;2023-05-16T13:00:30;15.80;97.20
6724;DHT22;3399;52.530;13.304;2023-05-16T13:02:56;15.90;96.70
6724;DHT22;3399;52.530;13.304;2023-05-16T13:05:22;15.80;95.70
6724;DHT22;3399;52.530;13.304;2023-05-16T13:07:48;15.80;94.90
6724;DHT22;3399;52.530;13.304;2023-05-16T13:10:17;15.90;94.40
6724;DHT22;3399;52.530;13.304;2023-05-16T13:12:43;15.80;95.50
6724;DHT22;3399;52.530;13.304;2023-05-16T13:15:10;15.80;95.70
6724;DHT22;3399;52.530;13.304;2023-05-16T13:17:40;15.90;94.60
6724;DHT22;3399;52.530;13.304;2023-05-16T13:20:08;16.30;93.10
6724;DHT22;3399;52.530;13.304;2023-05-16T13:22:37;16.30;91.80
6724;DHT22;3399;52.530;13.304;2023-05-16T13:25:04;16.40;94.10
6724;DHT22;3399;52.530;13.304;2023-05-16T13:27:30;16.60;93.60
6724;DHT22;3399;52.530;13.304;2023-05-16T13:29:56;16.80;91.60
6724;DHT22;3399;52.530;13.304;2023-05-16T13:32:22;16.70;92.10
6724;DHT22;3399;52.530;13.304;2023-05-16T13:34:48;16.40;92.30
6724;DHT22;3399;52.530;13.304;2023-05-16T13:37:13;16.30;93.10
6724;DHT22;3399;52.530;13.304;2023-05-16T13:39:39;16.40;92.70
6724;DHT22;3399;52.530;13.304;2023-05-16T13:42:05;16.40;92.10
6724;DHT22;3399;52.530;13.304;2023-05-16T13:44:31;16.40;91.10
6724;DHT22;3399;52.530;13.304;2023-05-16T13:46:56;16.20;91.90
6724;DHT22;3399;52.530;13.304;2023-05-16T13:49:22;16.30;89.60
6724;DHT22;3399;52.530;13.304;2023-05-16T13:51:51;16.50;91.70
6724;DHT22;3399;52.530;13.304;2023-05-16T13:54:17;16.90;90.70
6724;DHT22;3399;52.530;13.304;2023-05-16T13:56:43;17.20;89.50
6724;DHT22;3399;52.530;13.304;2023-05-16T13:59:08;17.30;89.60
6724;DHT22;3399;52.530;13.304;2023-05-16T14:01:34;17.50;87.70
6724;DHT22;3399;52.530;13.304;2023-05-16T14:04:01;17.50;85.10
6724;DHT22;3399;52.530;13.304;2023-05-16T14:06:26;17.50;85.60
6724;DHT22;3399;52.530;13.304;2023-05-16T14:08:52;17.30;85.00
6724;DHT22;3399;52.530;13.304;2023-05-16T14:11:18;17.30;86.30
6724;DHT22;3399;52.530;13.304;2023-05-16T14:13:44;17.30;82.80
6724;DHT22;3399;52.530;13.304;2023-05-16T14:16:10;17.50;85.20
6724;DHT22;3399;52.530;13.304;2023-05-16T14:18:35;17.50;83.40
6724;DHT22;3399;52.530;13.304;2023-05-16T14:21:01;17.40;78.90
6724;DHT22;3399;52.530;13.304;2023-05-16T14:23:26;17.50;79.60
6724;DHT22;3399;52.530;13.304;2023-05-16T14:25:52;17.80;82.70
6724;DHT22;3399;52.530;13.304;2023-05-16T14:28:18;18.30;81.50
6724;DHT22;3399;52.530;13.304;2023-05-16T14:30:43;18.80;78.70
6724;DHT22;3399;52.530;13.304;2023-05-16T14:33:09;18.70;76.10
6724;DHT22;3399;52.530;13.304;2023-05-16T14:35:34;18.60;73.50
6724;DHT22;3399;52.530;13.304;2023-05-16T14:38:02;18.70;70.70
6724;DHT22;3399;52.530;13.304;2023-05-16T14:40:28;18.30;71.80
6724;DHT22;3399;52.530;13.304;2023-05-16T14:42:54;17.80;75.10
6724;DHT22;3399;52.530;13.304;2023-05-16T14:45:19;17.60;75.40
6724;DHT22;3399;52.530;13.304;2023-05-16T14:47:45;17.40;76.20
6724;DHT22;3399;52.530;13.304;2023-05-16T14:50:10;17.40;73.80
6724;DHT22;3399;52.530;13.304;2023-05-16T14:52:38;17.30;73.10
6724;DHT22;3399;52.530;13.304;2023-05-16T14:55:04;17.30;73.70
6724;DHT22;3399;52.530;13.304;2023-05-16T14:57:30;17.30;75.30
6724;DHT22;3399;52.530;13.304;2023-05-16T14:59:56;17.90;74.60
6724;DHT22;3399;52.530;13.304;2023-05-16T15:02:22;18.40;71.50
6724;DHT22;3399;52.530;13.304;2023-05-16T15:04:48;18.60;71.40
6724;DHT22;3399;52.530;13.304;2023-05-16T15:07:14;18.60;67.30
6724;DHT22;3399;52.530;13.304;2023-05-16T15:09:40;18.50;67.60
6724;DHT22;3399;52.530;13.304;2023-05-16T15:12:06;18.60;69.30
6724;DHT22;3399;52.530;13.304;2023-05-16T15:14:32;19.00;64.40
6724;DHT22;3399;52.530;13.304;2023-05-16T15:16:57;19.50;65.90
6724;DHT22;3399;52.530;13.304;2023-05-16T15:19:23;19.50;62.90
6724;DHT22;3399;52.530;13.304;2023-05-16T15:21:49;19.40;63.00
6724;DHT22;3399;52.530;13.304;2023-05-16T15:24:14;19.60;62.20
6724;DHT22;3399;52.530;13.304;2023-05-16T15:26:41;19.80;64.30
6724;DHT22;3399;52.530;13.304;2023-05-16T15:29:06;19.70;59.30
6724;DHT22;3399;52.530;13.304;2023-05-16T15:31:32;19.80;57.80
6724;DHT22;3399;52.530;13.304;2023-05-16T15:33:57;19.90;60.20
6724;DHT22;3399;52.530;13.304;2023-05-16T15:36:23;20.10;56.50
6724;DHT22;3399;52.530;13.304;2023-05-16T15:38:48;20.30;56.20
6724;DHT22;3399;52.530;13.304;2023-05-16T15:41:14;20.40;55.90
6724;DHT22;3399;52.530;13.304;2023-05-16T15:43:40;20.70;53.90
6724;DHT22;3399;52.530;13.304;2023-05-16T15:46:07;20.60;51.90
6724;DHT22;3399;52.530;13.304;2023-05-16T15:48:34;20.20;51.10
6724;DHT22;3399;52.530;13.304;2023-05-16T15:50:59;19.80;50.70
6724;DHT22;3399;52.530;13.304;2023-05-16T15:53:25;19.50;53.10
6724;DHT22;3399;52.530;13.304;2023-05-16T15:55:50;19.20;54.50
6724;DHT22;3399;52.530;13.304;2023-05-16T15:58:16;18.90;55.10
6724;DHT22;3399;52.530;13.304;2023-05-16T16:00:41;18.60;54.20